Time;durP1;ratioP1;P1;durP2;ratioP2;P2;SDS_P1;SDS_P2;PMS_P1;PMS_P2;Temp;Humidity;BMP_temperature;BMP_pressure;BME280_temperature;BME280_humidity;BME280_pressure;Samples;Min_cycle;Max_cycle;Signal;HPM_P1;HPM_P2
2023/03/20 00:01:49;;;;;;;;;;;;;;;19.78;43.03;95821.09;10475876;28;2003;-61
2023/03/20 00:06:59;;;;;;;;;;;;;;;19.78;43.15;95825.56;10474038;28;1940;-61
2023/03/20 00:12:00;;;;;;;;;;;;;;;19.75;43.02;95820.81;10477522;28;1959;-61
2023/03/20 00:17:04;;;;;;;;;;;;;;;19.75;42.96;95826.06;10467816;28;2158;-61
2023/03/20 00:22:05;;;;;;;;;;;;;;;19.73;42.84;95823.72;10457306;28;2003;-61
2023/03/20 00:27:08;;;;;;;;;;;;;;;19.72;42.89;95827.38;10477347;28;1906;-61
2023/03/20 00:32:10;;;;;;;;;;;;;;;19.72;42.77;95821.34;10467954;28;2064;-61
2023/03/20 00:37:11;;;;;;;;;;;;;;;19.71;42.75;95822.41;10472521;28;1981;-61
2023/03/20 00:42:16;;;;;;;;;;;;;;;19.69;42.67;95822.66;10468746;28;1984;-61
2023/03/20 00:47:17;;;;;;;;;;;;;;;19.68;42.52;95820.31;10445141;28;2075;-61
2023/03/20 00:52:19;;;;;;;;;;;;;;;19.68;42.63;95825.56;10465432;28;2095;-60
2023/03/20 00:57:20;;;;;;;;;;;;;;;19.66;42.47;95819.78;10467733;28;1913;-61
2023/03/20 01:02:21;;;;;;;;;;;;;;;19.66;42.60;95822.41;10470915;28;2294;-61
2023/03/20 01:07:21;;;;;;;;;;;;;;;19.64;42.41;95814.00;10460950;28;2019;-61
2023/03/20 01:12:22;;;;;;;;;;;;;;;19.63;42.43;95823.72;10467121;28;2146;-61
2023/03/20 01:17:24;;;;;;;;;;;;;;;19.62;42.33;95822.13;10474561;28;2070;-61
2023/03/20 01:22:24;;;;;;;;;;;;;;;19.61;42.19;95820.59;10459748;28;2098;-61
2023/03/20 01:27:26;;;;;;;;;;;;;;;19.60;42.29;95818.22;10469293;28;2003;-61
2023/03/20 01:32:27;;;;;;;;;;;;;;;19.61;42.33;95830.31;10471271;28;2038;-60
2023/03/20 01:37:29;;;;;;;;;;;;;;;19.59;42.25;95824.53;10466310;28;2052;-61
2023/03/20 01:42:29;;;;;;;;;;;;;;;19.58;42.07;95825.59;10468359;28;1984;-61
2023/03/20 01:47:30;;;;;;;;;;;;;;;19.57;42.26;95821.38;10480853;28;1989;-61
2023/03/20 01:52:30;;;;;;;;;;;;;;;19.57;41.95;95824.00;10484684;28;1689;-61
2023/03/20 01:57:31;;;;;;;;;;;;;;;19.56;41.99;95822.44;10456529;28;1654;-61
2023/03/20 02:02:42;;;;;;;;;;;;;;;19.55;41.89;95821.66;10465251;28;2002;-61
2023/03/20 02:07:44;;;;;;;;;;;;;;;19.54;42.03;95819.28;10469163;28;2133;-61
2023/03/20 02:12:44;;;;;;;;;;;;;;;19.54;42.00;95821.91;10449181;28;2059;-61
2023/03/20 02:17:45;;;;;;;;;;;;;;;19.50;41.95;95813.75;10462204;28;2095;-61
2023/03/20 02:23:04;;;;;;;;;;;;;;;19.52;41.61;95822.16;10465927;28;1925;-61
2023/03/20 02:28:11;;;;;;;;;;;;;;;19.51;41.91;95825.06;10467482;28;1981;-61
2023/03/20 02:33:32;;;;;;;;;;;;;;;19.48;41.85;95827.16;10459057;28;1988;-61
2023/03/20 02:38:44;;;;;;;;;;;;;;;19.48;41.81;95819.28;10460786;28;2057;-60
2023/03/20 02:44:05;;;;;;;;;;;;;;;19.48;41.78;95823.75;10462711;28;2045;-61
2023/03/20 02:49:24;;;;;;;;;;;;;;;19.47;41.68;95822.19;10447120;28;2170;-61
2023/03/20 02:54:40;;;;;;;;;;;;;;;19.45;41.49;95819.03;10464048;28;1960;-61
2023/03/20 02:59:52;;;;;;;;;;;;;;;19.45;41.48;95816.41;10430818;28;2094;-61
2023/03/20 03:04:53;;;;;;;;;;;;;;;19.44;41.51;95822.69;10469084;28;1946;-61
2023/03/20 03:10:02;;;;;;;;;;;;;;;19.43;41.57;95824.53;10463154;28;2014;-61
2023/03/20 03:15:04;;;;;;;;;;;;;;;19.43;41.49;95821.91;10482732;28;2027;-61
2023/03/20 03:20:06;;;;;;;;;;;;;;;19.41;41.47;95831.88;10465872;28;1968;-61
2023/03/20 03:25:08;;;;;;;;;;;;;;;19.41;41.42;95823.25;10456494;28;2101;-61
2023/03/20 03:30:14;;;;;;;;;;;;;;;19.40;41.16;95825.06;10453711;28;1973;-61
2023/03/20 03:35:17;;;;;;;;;;;;;;;19.41;41.21;95839.00;10474663;28;2027;-61
2023/03/20 03:40:18;;;;;;;;;;;;;;;19.38;41.28;95832.44;10463129;28;1996;-61
2023/03/20 03:45:28;;;;;;;;;;;;;;;19.38;41.14;95842.94;10475340;28;2031;-61
2023/03/20 03:50:31;;;;;;;;;;;;;;;19.37;41.18;95841.34;10453232;28;2085;-61
2023/03/20 03:55:33;;;;;;;;;;;;;;;19.36;41.16;95837.16;10480819;28;2066;-61
2023/03/20 04:00:36;;;;;;;;;;;;;;;19.36;41.00;95847.69;10458004;28;2096;-61
2023/03/20 04:05:36;;;;;;;;;;;;;;;19.35;41.13;95851.34;10469720;28;2040;-61
2023/03/20 04:10:38;;;;;;;;;;;;;;;19.35;40.96;95856.59;10453761;28;2054;-61
2023/03/20 04:15:40;;;;;;;;;;;;;;;19.35;40.95;95866.34;10473345;28;1901;-61
2023/03/20 04:20:40;;;;;;;;;;;;;;;19.35;40.91;95868.97;10471336;28;1967;-61
2023/03/20 04:25:41;;;;;;;;;;;;;;;19.33;40.80;95877.09;10468134;28;2067;-61
2023/03/20 04:30:43;;;;;;;;;;;;;;;19.33;40.97;95871.06;10471041;28;1973;-61
2023/03/20 04:35:43;;;;;;;;;;;;;;;19.33;40.88;95876.31;10470974;28;1986;-61
2023/03/20 04:40:45;;;;;;;;;;;;;;;19.32;40.84;95878.13;10471667;28;1975;-61
2023/03/20 04:45:45;;;;;;;;;;;;;;;19.30;40.81;95877.63;10455221;28;1967;-61
2023/03/20 04:50:47;;;;;;;;;;;;;;;19.30;40.78;95879.44;10469850;28;1975;-61
2023/03/20 04:55:49;;;;;;;;;;;;;;;19.30;40.56;95884.69;10468127;28;1895;-61
2023/03/20 05:00:51;;;;;;;;;;;;;;;19.29;40.67;95886.53;10466988;28;1967;-61
2023/03/20 05:05:51;;;;;;;;;;;;;;;19.27;40.43;95883.38;10463360;28;2014;-61
2023/03/20 05:10:52;;;;;;;;;;;;;;;19.30;40.48;95893.38;10467188;28;1969;-61
2023/03/20 05:15:53;;;;;;;;;;;;;;;19.35;40.47;95890.78;10449675;28;2116;-61
2023/03/20 05:20:53;;;;;;;;;;;;;;;19.42;40.29;95890.53;10464357;28;2005;-61
2023/03/20 05:25:54;;;;;;;;;;;;;;;19.50;40.17;95900.50;10468584;28;1998;-61
2023/03/20 05:30:55;;;;;;;;;;;;;;;19.61;40.11;95901.31;10463020;28;2004;-61
2023/03/20 05:35:56;;;;;;;;;;;;;;;19.70;39.84;95907.63;10470323;28;1936;-61
2023/03/20 05:40:57;;;;;;;;;;;;;;;19.78;39.63;95917.59;10492895;28;1948;-61
2023/03/20 05:45:57;;;;;;;;;;;;;;;19.86;39.55;95919.72;10452946;28;1958;-61
2023/03/20 05:50:58;;;;;;;;;;;;;;;19.91;39.37;95919.69;10466750;28;2103;-61
2023/03/20 05:55:58;;;;;;;;;;;;;;;19.96;39.22;95932.84;10459123;28;2221;-60
2023/03/20 06:00:58;;;;;;;;;;;;;;;20.00;39.14;95929.44;10465106;28;2118;-60
2023/03/20 06:05:59;;;;;;;;;;;;;;;20.05;39.03;95932.03;10472910;28;2062;-61
2023/03/20 06:10:59;;;;;;;;;;;;;;;20.07;38.80;95953.59;10470066;28;1971;-60
2023/03/20 06:16:00;;;;;;;;;;;;;;;20.10;38.54;95953.09;10470388;28;1923;-59
2023/03/20 06:21:01;;;;;;;;;;;;;;;20.16;38.64;95959.13;10465053;28;1923;-59
2023/03/20 06:26:03;;;;;;;;;;;;;;;20.19;38.25;95967.34;10468007;28;2040;-60
2023/03/20 06:31:04;;;;;;;;;;;;;;;20.20;38.31;95966.28;10457128;28;2120;-60
2023/03/20 06:36:05;;;;;;;;;;;;;;;20.23;38.69;95973.66;10459999;28;2016;-60
2023/03/20 06:41:06;;;;;;;;;;;;;;;20.24;38.20;95971.78;10452264;28;2079;-61
2023/03/20 06:46:06;;;;;;;;;;;;;;;20.26;38.12;95974.94;10471964;28;2019;-60
2023/03/20 06:51:06;;;;;;;;;;;;;;;20.29;38.44;95969.16;10472918;28;1956;-61
2023/03/20 06:56:07;;;;;;;;;;;;;;;20.30;38.56;95969.94;10473602;28;2028;-61
2023/03/20 07:01:12;;;;;;;;;;;;;;;20.35;38.46;95975.97;10463659;28;2023;-61
2023/03/20 07:06:12;;;;;;;;;;;;;;;20.36;38.48;95964.38;10476709;28;1976;-61
2023/03/20 07:11:13;;;;;;;;;;;;;;;20.38;38.50;95974.66;10470031;28;1987;-60
2023/03/20 07:16:13;;;;;;;;;;;;;;;20.40;38.34;95978.63;10455370;28;2008;-61
2023/03/20 07:21:17;;;;;;;;;;;;;;;20.42;38.68;95983.63;10472716;28;1990;-61
2023/03/20 07:26:18;;;;;;;;;;;;;;;20.44;38.55;95994.66;10466660;28;2032;-60
2023/03/20 07:31:20;;;;;;;;;;;;;;;20.45;38.11;95994.41;10468909;28;1948;-60
2023/03/20 07:36:31;;;;;;;;;;;;;;;20.47;38.24;96002.81;10468778;28;1993;-60
2023/03/20 07:41:41;;;;;;;;;;;;;;;20.49;38.24;95999.91;10463181;28;1978;-62
2023/03/20 07:46:43;;;;;;;;;;;;;;;20.49;38.08;96011.25;10468324;28;2067;-62
2023/03/20 07:51:44;;;;;;;;;;;;;;;20.51;38.03;96014.41;10450005;28;2055;-61
2023/03/20 07:56:44;;;;;;;;;;;;;;;20.51;38.13;96005.69;10477760;28;1928;-62
2023/03/20 08:01:45;;;;;;;;;;;;;;;20.52;38.12;96009.94;10472893;28;2032;-62
2023/03/20 08:06:46;;;;;;;;;;;;;;;20.51;38.25;96009.13;10463598;28;1957;-61
2023/03/20 08:11:48;;;;;;;;;;;;;;;20.53;38.19;96011.47;10481405;28;2040;-61
2023/03/20 08:16:48;;;;;;;;;;;;;;;20.53;38.32;96012.28;10468726;28;2006;-62
2023/03/20 08:21:50;;;;;;;;;;;;;;;20.50;38.14;96015.47;10475260;28;1953;-61
2023/03/20 08:26:51;;;;;;;;;;;;;;;20.50;38.43;96010.19;10467231;28;2134;-62
2023/03/20 08:31:51;;;;;;;;;;;;;;;20.47;38.27;96013.34;10469103;28;2160;-61
2023/03/20 08:36:52;;;;;;;;;;;;;;;20.45;38.47;96002.28;10465325;28;2063;-61
2023/03/20 08:41:53;;;;;;;;;;;;;;;20.42;38.26;96004.69;10472160;28;1913;-62
2023/03/20 08:46:55;;;;;;;;;;;;;;;20.40;38.31;95996.25;10471914;28;1968;-62
2023/03/20 08:51:56;;;;;;;;;;;;;;;20.37;38.35;95997.56;10468589;28;1948;-62
2023/03/20 08:56:58;;;;;;;;;;;;;;;20.35;38.50;96004.16;10466226;28;2004;-61
2023/03/20 09:01:58;;;;;;;;;;;;;;;20.33;38.37;96006.25;10466802;28;2087;-62
2023/03/20 09:07:00;;;;;;;;;;;;;;;20.31;38.59;96003.09;10479151;28;1955;-62
2023/03/20 09:12:00;;;;;;;;;;;;;;;20.28;38.38;96004.41;10461096;28;2106;-61
2023/03/20 09:17:01;;;;;;;;;;;;;;;20.25;38.46;96010.22;10467596;28;2017;-62
2023/03/20 09:22:01;;;;;;;;;;;;;;;20.22;38.50;96008.09;10461850;28;2019;-62
2023/03/20 09:27:01;;;;;;;;;;;;;;;20.21;38.65;96011.81;10458590;28;1973;-62
2023/03/20 09:32:03;;;;;;;;;;;;;;;20.18;38.71;96012.28;10464496;28;1983;-61
2023/03/20 09:37:04;;;;;;;;;;;;;;;20.15;38.56;96020.72;10462933;28;1987;-62
2023/03/20 09:42:13;;;;;;;;;;;;;;;20.13;38.53;96014.94;10461511;28;2288;-62
2023/03/20 09:47:13;;;;;;;;;;;;;;;20.12;38.72;96008.09;10458368;28;2006;-61
2023/03/20 09:52:19;;;;;;;;;;;;;;;20.07;38.60;96003.59;10464716;28;2115;-61
2023/03/20 09:57:23;;;;;;;;;;;;;;;20.06;38.78;96001.25;10465097;28;1979;-59
2023/03/20 10:02:48;;;;;;;;;;;;;;;20.03;38.66;95997.28;10441044;28;2083;-61
2023/03/20 10:07:49;;;;;;;;;;;;;;;20.01;38.58;96002.03;10471305;28;2036;-60
2023/03/20 10:12:56;;;;;;;;;;;;;;;20.00;38.72;96002.31;10469900;28;2013;-60
2023/03/20 10:17:57;;;;;;;;;;;;;;;19.98;38.53;95994.69;10480748;28;2052;-62
2023/03/20 10:22:58;;;;;;;;;;;;;;;19.97;38.74;95994.97;10476247;28;2146;-62
2023/03/20 10:27:59;;;;;;;;;;;;;;;19.94;38.57;95990.22;10460801;28;1986;-61
2023/03/20 10:33:15;;;;;;;;;;;;;;;19.94;38.63;95992.84;10446584;28;1964;-62
2023/03/20 10:38:18;;;;;;;;;;;;;;;19.91;38.76;95982.81;10479239;28;1919;-61
2023/03/20 10:43:22;;;;;;;;;;;;;;;19.91;38.86;95975.72;10477448;28;2101;-63
2023/03/20 10:48:34;;;;;;;;;;;;;;;19.90;38.89;95970.75;10466505;28;1973;-62
2023/03/20 10:53:48;;;;;;;;;;;;;;;19.89;38.85;95971.78;10478964;28;2031;-62
2023/03/20 10:58:56;;;;;;;;;;;;;;;19.87;38.88;95971.25;10471275;28;1996;-62
2023/03/20 11:03:56;;;;;;;;;;;;;;;19.87;38.74;95964.16;10461657;28;1971;-62
2023/03/20 11:08:57;;;;;;;;;;;;;;;19.87;38.90;95960.72;10482521;28;1961;-61
2023/03/20 11:13:58;;;;;;;;;;;;;;;19.87;38.85;95955.47;10465406;28;2026;-62
2023/03/20 11:19:03;;;;;;;;;;;;;;;19.90;38.81;95955.75;10451165;28;1952;-62
2023/03/20 11:24:04;;;;;;;;;;;;;;;19.89;38.59;95948.09;10478071;28;1925;-60
2023/03/20 11:29:07;;;;;;;;;;;;;;;19.87;38.89;95947.56;10478948;28;1918;-60
2023/03/20 11:34:10;;;;;;;;;;;;;;;19.87;38.99;95955.47;10460765;28;1933;-62
2023/03/20 11:39:21;;;;;;;;;;;;;;;19.84;38.84;95951.53;10475702;28;1963;-60
2023/03/20 11:44:28;;;;;;;;;;;;;;;19.83;38.84;95944.69;10471454;28;1962;-61
2023/03/20 11:49:30;;;;;;;;;;;;;;;19.82;38.84;95947.59;10477606;28;1949;-61
2023/03/20 11:54:31;;;;;;;;;;;;;;;19.81;38.82;95941.53;10482863;28;1885;-61
2023/03/20 11:59:33;;;;;;;;;;;;;;;19.81;38.81;95935.47;10474107;28;1968;-61
2023/03/20 12:04:36;;;;;;;;;;;;;;;19.81;39.05;95941.53;10453676;28;2042;-61
2023/03/20 12:09:57;;;;;;;;;;;;;;;19.79;38.86;95937.59;10465764;28;1966;-61
2023/03/20 12:14:59;;;;;;;;;;;;;;;19.77;38.85;95939.69;10468498;28;2128;-61
2023/03/20 12:20:03;;;;;;;;;;;;;;;19.76;38.90;95938.94;10447114;28;1948;-61
2023/03/20 12:25:06;;;;;;;;;;;;;;;19.76;38.69;95933.66;10448768;28;1984;-61
2023/03/20 12:30:12;;;;;;;;;;;;;;;19.73;38.90;95934.19;10463503;28;1985;-61
2023/03/20 12:35:16;;;;;;;;;;;;;;;19.74;38.72;95927.84;10455019;28;2089;-61
2023/03/20 12:40:47;;;;;;;;;;;;;;;19.72;38.69;95918.66;10483991;28;1948;-61
2023/03/20 12:46:00;;;;;;;;;;;;;;;19.71;38.75;95915.25;10463000;28;1958;-61
2023/03/20 12:51:03;;;;;;;;;;;;;;;19.71;38.59;95924.97;10472574;28;1975;-61
2023/03/20 12:56:06;;;;;;;;;;;;;;;19.68;38.79;95921.00;10475690;28;2052;-61
2023/03/20 13:01:16;;;;;;;;;;;;;;;19.68;38.82;95923.63;10466985;28;1958;-61
2023/03/20 13:06:35;;;;;;;;;;;;;;;19.68;38.59;95930.75;10475572;28;1973;-61
2023/03/20 13:11:39;;;;;;;;;;;;;;;19.66;38.59;95927.63;10461294;28;2439;-61
2023/03/20 13:16:45;;;;;;;;;;;;;;;19.66;38.61;95917.84;10472247;28;2110;-61
2023/03/20 13:21:57;;;;;;;;;;;;;;;19.65;38.68;95920.75;10476649;28;1984;-61
2023/03/20 13:27:07;;;;;;;;;;;;;;;19.64;38.73;95917.34;10449135;28;2004;-61
2023/03/20 13:32:13;;;;;;;;;;;;;;;19.63;38.66;95913.13;10462907;28;2003;-61
2023/03/20 13:37:14;;;;;;;;;;;;;;;19.63;38.78;95907.09;10462630;28;1978;-61
2023/03/20 13:42:19;;;;;;;;;;;;;;;19.63;38.82;95912.34;10473190;28;1979;-61
2023/03/20 13:47:23;;;;;;;;;;;;;;;19.64;38.72;95903.41;10462657;28;2071;-61
2023/03/20 13:52:25;;;;;;;;;;;;;;;19.64;38.74;95896.28;10482668;28;2000;-61
2023/03/20 13:57:44;;;;;;;;;;;;;;;19.66;38.60;95890.78;10481311;28;1729;-61
2023/03/20 14:02:47;;;;;;;;;;;;;;;19.64;38.83;95887.63;10461156;28;1942;-61
2023/03/20 14:07:48;;;;;;;;;;;;;;;19.65;38.80;95884.75;10473257;28;1976;-60
2023/03/20 14:12:54;;;;;;;;;;;;;;;19.66;38.94;95888.16;10459373;28;2006;-61
2023/03/20 14:17:55;;;;;;;;;;;;;;;19.67;38.90;95873.94;10465430;28;1980;-61
2023/03/20 14:22:55;;;;;;;;;;;;;;;19.67;38.92;95873.94;10444224;28;1961;-62
2023/03/20 14:27:56;;;;;;;;;;;;;;;19.65;38.88;95868.16;10445238;28;1964;-61
2023/03/20 14:32:59;;;;;;;;;;;;;;;19.64;38.91;95870.00;10461370;28;2011;-61
2023/03/20 14:38:00;;;;;;;;;;;;;;;19.64;38.97;95871.88;10447872;28;2178;-61
2023/03/20 14:43:25;;;;;;;;;;;;;;;19.66;39.02;95865.25;10462511;28;2230;-61
2023/03/20 14:48:26;;;;;;;;;;;;;;;19.72;38.91;95863.44;10441203;28;2007;-61
2023/03/20 14:53:26;;;;;;;;;;;;;;;19.75;39.00;95873.41;10466715;28;2119;-61
2023/03/20 14:58:33;;;;;;;;;;;;;;;19.81;38.85;95864.47;10465003;28;2045;-61
2023/03/20 15:03:34;;;;;;;;;;;;;;;19.86;38.62;95862.63;10469438;28;2102;-61
2023/03/20 15:08:42;;;;;;;;;;;;;;;19.91;38.41;95859.97;10465630;28;1960;-62
2023/03/20 15:13:42;;;;;;;;;;;;;;;20.00;38.39;95860.22;10467455;28;2015;-61
2023/03/20 15:18:49;;;;;;;;;;;;;;;20.06;38.33;95857.31;10474394;28;1994;-61
2023/03/20 15:23:49;;;;;;;;;;;;;;;20.12;38.24;95852.81;10449231;28;1944;-61
2023/03/20 15:28:49;;;;;;;;;;;;;;;20.18;38.04;95852.53;10472766;28;1971;-61
2023/03/20 15:33:50;;;;;;;;;;;;;;;20.24;38.19;95855.97;10451173;28;2269;-61
2023/03/20 15:38:51;;;;;;;;;;;;;;;20.29;38.11;95863.84;10471973;28;2067;-59
2023/03/20 15:43:51;;;;;;;;;;;;;;;20.34;37.81;95858.56;10470212;28;1916;-61
2023/03/20 15:48:52;;;;;;;;;;;;;;;20.36;37.76;95853.81;10478905;28;2171;-61
2023/03/20 15:53:53;;;;;;;;;;;;;;;20.40;37.83;95857.50;10466089;28;1955;-61
2023/03/20 15:58:54;;;;;;;;;;;;;;;20.43;37.66;95843.78;10478793;28;2036;-62
2023/03/20 16:03:56;;;;;;;;;;;;;;;20.47;37.42;95847.47;10477601;28;1889;-61
2023/03/20 16:08:59;;;;;;;;;;;;;;;20.50;37.42;95843.50;10481761;28;2075;-61
2023/03/20 16:13:59;;;;;;;;;;;;;;;20.50;37.36;95841.66;10481324;28;1992;-61
2023/03/20 16:19:00;;;;;;;;;;;;;;;20.53;37.33;95833.22;10472083;28;2018;-61
2023/03/20 16:24:04;;;;;;;;;;;;;;;20.54;37.46;95840.06;10474897;28;2027;-61
2023/03/20 16:29:04;;;;;;;;;;;;;;;20.56;37.23;95837.94;10477369;28;2032;-61
2023/03/20 16:34:07;;;;;;;;;;;;;;;20.57;37.18;95839.50;10460385;28;2064;-61
2023/03/20 16:39:08;;;;;;;;;;;;;;;20.60;37.34;95828.44;10470151;28;2043;-61
2023/03/20 16:44:19;;;;;;;;;;;;;;;20.61;37.27;95834.50;10470835;28;2055;-61
2023/03/20 16:49:31;;;;;;;;;;;;;;;20.61;37.33;95835.28;10443228;28;1983;-61
2023/03/20 16:54:33;;;;;;;;;;;;;;;20.61;37.30;95835.28;10465481;28;1969;-61
2023/03/20 16:59:38;;;;;;;;;;;;;;;20.61;37.14;95830.00;10468814;28;1960;-62
2023/03/20 17:04:39;;;;;;;;;;;;;;;20.63;36.99;95854.22;10468945;28;1991;-61
2023/03/20 17:09:50;;;;;;;;;;;;;;;20.63;37.19;95858.72;10472158;28;2065;-61
2023/03/20 17:14:50;;;;;;;;;;;;;;;20.62;37.01;95863.19;10450120;28;2092;-62
2023/03/20 17:19:52;;;;;;;;;;;;;;;20.61;37.06;95861.59;10443058;28;2131;-62
2023/03/20 17:24:53;;;;;;;;;;;;;;;20.60;37.00;95865.31;10471335;28;2071;-61
2023/03/20 17:29:55;;;;;;;;;;;;;;;20.56;37.11;95866.13;10466595;28;2047;-62
2023/03/20 17:34:56;;;;;;;;;;;;;;;20.55;36.98;95865.31;10465854;28;2079;-62
2023/03/20 17:39:56;;;;;;;;;;;;;;;20.54;36.89;95865.59;10461270;28;1965;-62
2023/03/20 17:44:57;;;;;;;;;;;;;;;20.49;37.14;95863.78;10469116;28;2067;-62
2023/03/20 17:49:58;;;;;;;;;;;;;;;20.48;37.16;95862.22;10465744;28;2019;-61
2023/03/20 17:54:58;;;;;;;;;;;;;;;20.50;37.30;95861.94;10462899;28;1980;-61
2023/03/20 17:59:59;;;;;;;;;;;;;;;20.49;37.11;95869.03;10448075;28;2022;-62
2023/03/20 18:05:00;;;;;;;;;;;;;;;20.48;37.26;95871.94;10474269;28;1995;-62
2023/03/20 18:10:00;;;;;;;;;;;;;;;20.49;37.43;95876.94;10469435;28;1920;-62
2023/03/20 18:15:01;;;;;;;;;;;;;;;20.52;37.28;95878.25;10462476;28;1912;-62
2023/03/20 18:20:02;;;;;;;;;;;;;;;20.49;37.57;95871.69;10453994;28;2130;-65
2023/03/20 18:25:03;;;;;;;;;;;;;;;20.51;37.71;95864.28;10463077;28;2007;-60
2023/03/20 18:30:06;;;;;;;;;;;;;;;20.53;37.72;95867.44;10471521;28;1972;-61
2023/03/20 18:35:08;;;;;;;;;;;;;;;20.53;37.85;95864.81;10457445;28;1969;-62
2023/03/20 18:40:24;;;;;;;;;;;;;;;20.51;37.94;95866.94;10480933;28;2037;-62
2023/03/20 18:45:31;;;;;;;;;;;;;;;20.51;38.11;95877.47;10460522;28;1997;-62
2023/03/20 18:50:39;;;;;;;;;;;;;;;20.50;38.00;95881.16;10471963;28;1971;-62
2023/03/20 18:55:40;;;;;;;;;;;;;;;20.48;37.93;95885.91;10473425;28;2010;-62
2023/03/20 19:00:41;;;;;;;;;;;;;;;20.48;38.00;95880.66;10470167;28;1937;-62
2023/03/20 19:05:42;;;;;;;;;;;;;;;20.49;37.90;95890.09;10471702;28;2046;-60
2023/03/20 19:10:43;;;;;;;;;;;;;;;19.94;35.23;95888.41;10465957;28;2082;-59
2023/03/20 19:15:44;;;;;;;;;;;;;;;19.61;35.08;95894.22;10470200;28;2146;-60
2023/03/20 19:20:46;;;;;;;;;;;;;;;19.63;35.76;95891.31;10472754;28;1982;-60
2023/03/20 19:25:53;;;;;;;;;;;;;;;19.77;37.30;95893.16;10483886;28;1491;-60
2023/03/20 19:30:54;;;;;;;;;;;;;;;19.90;37.78;95897.88;10491005;28;1902;-60
2023/03/20 19:35:55;;;;;;;;;;;;;;;19.99;38.28;95890.22;10468320;28;1506;-62
2023/03/20 19:40:56;;;;;;;;;;;;;;;20.06;38.04;95896.00;10475479;28;1495;-62
2023/03/20 19:45:57;;;;;;;;;;;;;;;20.11;38.19;95896.75;10477682;28;1494;-61
2023/03/20 19:50:57;;;;;;;;;;;;;;;20.17;38.48;95905.47;10482378;28;1906;-61
2023/03/20 19:55:57;;;;;;;;;;;;;;;20.22;38.23;95897.56;10482656;28;1468;-61
2023/03/20 20:00:59;;;;;;;;;;;;;;;20.27;38.03;95892.28;10477916;28;1817;-61
2023/03/20 20:06:01;;;;;;;;;;;;;;;20.29;38.12;95895.44;10484158;28;1423;-60
2023/03/20 20:11:02;;;;;;;;;;;;;;;20.31;38.21;95898.59;10476408;28;1955;-60
2023/03/20 20:16:04;;;;;;;;;;;;;;;20.31;38.40;95893.34;10485104;28;1507;-61
2023/03/20 20:21:06;;;;;;;;;;;;;;;20.33;38.50;95896.47;10484498;28;1463;-60
2023/03/20 20:26:08;;;;;;;;;;;;;;;20.36;38.56;95892.53;10477187;28;1654;-60
2023/03/20 20:31:09;;;;;;;;;;;;;;;20.38;38.52;95893.06;10476567;28;1960;-60
2023/03/20 20:36:10;;;;;;;;;;;;;;;20.36;38.86;95895.94;10484496;28;1543;-61
2023/03/20 20:41:10;;;;;;;;;;;;;;;20.36;38.79;95895.16;10483280;28;1533;-61
2023/03/20 20:46:11;;;;;;;;;;;;;;;20.36;38.77;95884.63;10481422;28;1924;-61
2023/03/20 20:51:11;;;;;;;;;;;;;;;20.37;38.57;95896.72;10479834;28;1913;-61
2023/03/20 20:56:12;;;;;;;;;;;;;;;20.37;38.69;95896.72;10478309;28;1956;-61
2023/03/20 21:01:13;;;;;;;;;;;;;;;20.37;38.56;95896.72;10480217;28;1944;-62
2023/03/20 21:06:23;;;;;;;;;;;;;;;20.35;38.43;95899.63;10476203;28;1928;-61
2023/03/20 21:11:24;;;;;;;;;;;;;;;20.31;38.36;95905.69;10479551;28;1902;-59
2023/03/20 21:16:26;;;;;;;;;;;;;;;20.27;38.12;95898.34;10469616;28;1959;-62
2023/03/20 21:21:26;;;;;;;;;;;;;;;20.25;37.92;95897.84;10456014;28;2038;-62
2023/03/20 21:26:27;;;;;;;;;;;;;;;20.21;37.96;95898.63;10465715;28;1943;-62
2023/03/20 21:31:28;;;;;;;;;;;;;;;20.18;37.85;95902.53;10468284;28;1932;-62
2023/03/20 21:36:29;;;;;;;;;;;;;;;20.14;37.82;95901.50;10465108;28;1993;-62
2023/03/20 21:41:29;;;;;;;;;;;;;;;20.12;37.95;95900.97;10478210;28;2085;-61
2023/03/20 21:46:30;;;;;;;;;;;;;;;20.10;37.80;95891.78;10476219;28;2150;-62
2023/03/20 21:51:33;;;;;;;;;;;;;;;20.08;37.76;95893.88;10474996;28;2033;-62
2023/03/20 21:56:34;;;;;;;;;;;;;;;20.06;37.81;95893.34;10476230;28;2051;-62
2023/03/20 22:01:35;;;;;;;;;;;;;;;20.03;37.83;95891.28;10474624;28;2035;-62
2023/03/20 22:06:35;;;;;;;;;;;;;;;20.03;37.73;95896.53;10466503;28;1958;-62
2023/03/20 22:11:35;;;;;;;;;;;;;;;19.99;37.68;95896.25;10458613;28;2118;-62
2023/03/20 22:16:37;;;;;;;;;;;;;;;19.96;37.84;95896.81;10471325;28;1947;-62
2023/03/20 22:21:38;;;;;;;;;;;;;;;19.95;37.64;95897.06;10456527;28;2125;-62
2023/03/20 22:26:39;;;;;;;;;;;;;;;19.93;37.69;95894.69;10458448;28;2003;-62
2023/03/20 22:31:42;;;;;;;;;;;;;;;19.92;37.66;95894.97;10467662;28;2012;-62
2023/03/20 22:36:43;;;;;;;;;;;;;;;19.91;37.57;95903.91;10462753;28;2024;-62
2023/03/20 22:41:43;;;;;;;;;;;;;;;19.90;37.57;95894.44;10442939;28;2004;-62
2023/03/20 22:46:44;;;;;;;;;;;;;;;19.87;37.69;95898.38;10461527;28;1991;-62
2023/03/20 22:51:45;;;;;;;;;;;;;;;19.85;37.59;95895.22;10463913;28;2034;-62
2023/03/20 22:56:46;;;;;;;;;;;;;;;19.85;37.75;95889.97;10465739;28;2185;-62
2023/03/20 23:01:46;;;;;;;;;;;;;;;19.83;37.71;95886.81;10458878;28;2095;-62
2023/03/20 23:06:47;;;;;;;;;;;;;;;19.82;37.69;95887.88;10461489;28;2055;-62
2023/03/20 23:11:48;;;;;;;;;;;;;;;19.81;37.61;95882.88;10463624;28;2213;-62
2023/03/20 23:16:49;;;;;;;;;;;;;;;19.79;37.63;95884.97;10465352;28;1948;-62
2023/03/20 23:21:49;;;;;;;;;;;;;;;19.79;37.64;95879.72;10471741;28;2088;-62
2023/03/20 23:26:51;;;;;;;;;;;;;;;19.77;37.64;95877.34;10469520;28;1976;-61
2023/03/20 23:31:51;;;;;;;;;;;;;;;19.75;37.52;95876.84;10470526;28;1967;-62
2023/03/20 23:36:51;;;;;;;;;;;;;;;19.75;37.53;95874.22;10471813;28;1937;-62
2023/03/20 23:42:02;;;;;;;;;;;;;;;19.74;37.47;95871.84;10470839;28;1959;-62
2023/03/20 23:47:02;;;;;;;;;;;;;;;19.73;37.54;95868.44;10464959;28;2122;-62
2023/03/20 23:52:03;;;;;;;;;;;;;;;19.72;37.45;95866.06;10466343;28;2107;-62
2023/03/20 23:57:03;;;;;;;;;;;;;;;19.71;37.41;95856.59;10467777;28;1978;-62
